Decoded Metar for KD55 ( in ) (IATA:) | Meteo·Mobile Aviation Weather
aviador You're here:

KD55 Decoded Metar

in
Report Time2018-12-15 18:55:00
UTC Time2018-12-15 18:53:06
Flight Rules vfr VFR
Wind190° at 18 kt
W.Rank190° ranks 6
Current wind is above 190° avg. (11.5)
Visibility9999 m
Phenomena:N/A
Clouds:N/A
CeilingNone
Temp00°C
Dew Point00°C (100% RH)
AAT-8.5°C
QNH1002 hPa
Raw Report
KD55 151855Z AUTO 19018KT 10SM CLR 00/M00 A2960 RMK AO2=

Extra information for KD55:More info

Social comments